createdAt,value
2023-03-18T00:00:34.358Z,2.08
2023-03-18T00:03:40.736Z,2.28
2023-03-18T00:06:48.542Z,2.20
2023-03-18T00:09:54.305Z,2.28
2023-03-18T00:12:59.717Z,2.53
2023-03-18T00:16:05.547Z,2.13
2023-03-18T00:19:10.894Z,2.40
2023-03-18T00:22:19.076Z,2.58
2023-03-18T00:25:24.447Z,2.75
2023-03-18T00:28:29.965Z,2.17
2023-03-18T00:31:35.034Z,2.55
2023-03-18T00:34:40.009Z,2.63
2023-03-18T00:37:49.148Z,2.45
2023-03-18T00:41:01.780Z,2.35
2023-03-18T00:44:07.818Z,2.47
2023-03-18T00:47:13.055Z,2.65
2023-03-18T00:50:18.025Z,2.83
2023-03-18T00:53:26.627Z,2.65
2023-03-18T00:59:36.738Z,2.35
2023-03-18T01:02:43.280Z,2.47
2023-03-18T01:05:48.403Z,2.72
2023-03-18T01:08:56.217Z,2.60
2023-03-18T01:12:02.445Z,2.97
2023-03-18T01:15:08.295Z,2.97
2023-03-18T01:18:14.034Z,3.20
2023-03-18T01:21:19.445Z,2.70
2023-03-18T01:24:32.487Z,2.85
2023-03-18T01:27:37.888Z,3.55
2023-03-18T01:30:43.089Z,3.00
2023-03-18T01:33:49.007Z,3.03
2023-03-18T01:36:54.858Z,3.08
2023-03-18T01:40:05.641Z,3.08
2023-03-18T01:43:16.390Z,2.53
2023-03-18T01:46:36.568Z,3.10
2023-03-18T01:49:44.106Z,3.15
2023-03-18T01:52:50.305Z,2.53
2023-03-18T01:55:58.514Z,3.03
2023-03-18T01:59:04.128Z,3.20
2023-03-18T02:02:10.556Z,2.97
2023-03-18T02:05:19.438Z,2.40
2023-03-18T02:08:25.096Z,2.78
2023-03-18T02:11:33.794Z,3.17
2023-03-18T02:14:39.719Z,2.88
2023-03-18T02:18:06.628Z,2.85
2023-03-18T02:21:19.181Z,2.70
2023-03-18T02:24:42.694Z,3.38
2023-03-18T02:27:57.497Z,2.53
2023-03-18T02:31:09.776Z,2.60
2023-03-18T02:34:16.018Z,2.35
2023-03-18T02:37:21.545Z,2.78
2023-03-18T02:40:29.638Z,2.47
2023-03-18T02:43:37.800Z,3.25
2023-03-18T02:46:51.034Z,2.47
2023-03-18T02:49:56.397Z,2.65
2023-03-18T02:53:02.515Z,2.40
2023-03-18T02:56:08.794Z,2.80
2023-03-18T02:59:16.672Z,2.30
2023-03-18T03:02:22.170Z,2.55
2023-03-18T03:05:28.046Z,2.40
2023-03-18T03:08:34.012Z,2.67
2023-03-18T03:11:39.412Z,2.13
2023-03-18T03:14:53.867Z,2.70
2023-03-18T03:17:59.335Z,2.30
2023-03-18T03:21:04.936Z,2.72
2023-03-18T03:24:10.393Z,2.03
2023-03-18T03:27:18.088Z,2.45
2023-03-18T03:30:26.496Z,2.22
2023-03-18T03:33:32.155Z,2.08
2023-03-18T03:36:37.493Z,1.83
2023-03-18T03:39:42.997Z,2.95
2023-03-18T03:42:48.393Z,2.97
2023-03-18T03:45:56.093Z,2.25
2023-03-18T03:49:01.469Z,2.60
2023-03-18T03:52:07.028Z,2.30
2023-03-18T03:55:15.648Z,2.03
2023-03-18T03:58:21.019Z,2.08
2023-03-18T04:01:29.779Z,2.20
2023-03-18T04:04:36.047Z,2.42
2023-03-18T04:07:41.534Z,2.10
2023-03-18T04:10:47.443Z,2.58
2023-03-18T04:13:52.600Z,2.38
2023-03-18T04:17:02.029Z,2.55
2023-03-18T04:20:09.173Z,2.47
2023-03-18T04:23:14.584Z,2.33
2023-03-18T04:26:20.001Z,2.80
2023-03-18T04:29:26.649Z,3.00
2023-03-18T04:32:34.704Z,3.78
2023-03-18T04:38:45.238Z,2.17
2023-03-18T04:41:51.528Z,2.45
2023-03-18T04:44:56.944Z,2.33
2023-03-18T04:48:04.960Z,2.30
2023-03-18T04:51:15.618Z,2.53
2023-03-18T04:54:22.056Z,3.33
2023-03-18T04:57:30.727Z,2.17
2023-03-18T05:00:36.222Z,2.40
2023-03-18T05:03:56.564Z,2.75
2023-03-18T05:07:11.648Z,2.30
2023-03-18T05:10:19.347Z,2.50
2023-03-18T05:13:25.051Z,2.17
2023-03-18T05:16:30.795Z,2.28
2023-03-18T05:19:40.019Z,2.40
2023-03-18T05:22:52.577Z,3.08
2023-03-18T05:26:14.021Z,2.70
2023-03-18T05:29:24.112Z,2.50
2023-03-18T05:32:46.070Z,2.83
2023-03-18T05:35:55.071Z,3.00
2023-03-18T05:39:05.567Z,2.78
2023-03-18T05:42:11.740Z,2.65
2023-03-18T05:45:17.033Z,3.30
2023-03-18T05:48:29.280Z,3.25
2023-03-18T05:51:41.764Z,3.28
2023-03-18T05:54:51.153Z,3.13
2023-03-18T05:58:03.497Z,3.35
2023-03-18T06:01:11.693Z,3.35
2023-03-18T06:04:17.481Z,4.25
2023-03-18T06:07:25.172Z,3.63
2023-03-18T06:13:36.080Z,4.05
2023-03-18T06:16:41.947Z,3.75
2023-03-18T06:19:48.393Z,4.10
2023-03-18T06:22:56.377Z,4.10
2023-03-18T06:26:04.925Z,4.20
2023-03-18T06:29:14.937Z,4.07
2023-03-18T06:32:20.432Z,4.07
2023-03-18T06:35:26.911Z,4.72
2023-03-18T06:38:35.043Z,5.18
2023-03-18T06:41:41.103Z,2.38
2023-03-18T06:45:05.128Z,2.47
2023-03-18T06:48:29.142Z,1.90
2023-03-18T06:51:36.828Z,2.75
2023-03-18T06:54:45.030Z,3.08
2023-03-18T06:57:50.410Z,3.50
2023-03-18T07:01:00.607Z,3.60
2023-03-18T07:04:12.156Z,3.05
2023-03-18T07:07:17.522Z,2.97
2023-03-18T07:10:27.484Z,2.50
2023-03-18T07:13:39.467Z,3.40
2023-03-18T07:16:52.416Z,3.15
2023-03-18T07:19:58.599Z,2.38
2023-03-18T07:23:04.047Z,2.53
2023-03-18T07:26:12.768Z,2.35
2023-03-18T07:29:17.992Z,2.45
2023-03-18T07:32:23.553Z,2.30
2023-03-18T07:35:29.157Z,2.20
2023-03-18T07:38:34.524Z,2.10
2023-03-18T07:41:42.526Z,1.92
2023-03-18T07:44:47.707Z,2.00
2023-03-18T07:47:53.375Z,2.10
2023-03-18T07:50:59.648Z,2.40
2023-03-18T07:54:05.317Z,2.20
2023-03-18T07:57:13.316Z,2.20
2023-03-18T08:00:19.055Z,2.50
2023-03-18T08:03:24.105Z,2.35
2023-03-18T08:06:29.396Z,2.40
2023-03-18T08:09:34.589Z,2.90
2023-03-18T08:12:52.584Z,1.98
2023-03-18T08:15:59.193Z,1.80
2023-03-18T08:19:04.585Z,1.67
2023-03-18T08:22:10.493Z,1.80
2023-03-18T08:25:16.018Z,2.35
2023-03-18T08:28:23.996Z,1.90
2023-03-18T08:31:29.203Z,2.30
2023-03-18T08:34:34.712Z,2.10
2023-03-18T08:37:40.011Z,2.45
2023-03-18T08:40:46.752Z,2.35
2023-03-18T08:43:55.731Z,2.00
2023-03-18T08:47:01.547Z,2.30
2023-03-18T08:50:07.282Z,2.38
2023-03-18T08:53:13.355Z,2.65
2023-03-18T08:56:18.682Z,2.25
2023-03-18T08:59:26.716Z,2.35
2023-03-18T09:02:32.208Z,2.00
2023-03-18T09:05:37.920Z,2.10
2023-03-18T09:08:44.253Z,2.40
2023-03-18T09:11:50.034Z,2.58
2023-03-18T09:14:58.172Z,2.30
2023-03-18T09:18:12.275Z,2.25
2023-03-18T09:21:18.102Z,2.17
2023-03-18T09:24:23.279Z,2.50
2023-03-18T09:27:28.521Z,2.20
2023-03-18T09:30:36.496Z,2.20
2023-03-18T09:33:42.209Z,2.72
2023-03-18T09:36:51.315Z,2.42
2023-03-18T09:39:56.999Z,2.17
2023-03-18T09:43:06.009Z,2.50
2023-03-18T09:46:18.122Z,1.92
2023-03-18T09:49:39.228Z,2.10
2023-03-18T09:52:47.538Z,1.70
2023-03-18T09:55:56.086Z,2.15
2023-03-18T09:59:04.118Z,2.20
2023-03-18T10:02:20.074Z,1.98
2023-03-18T10:05:27.978Z,2.28
2023-03-18T10:08:46.062Z,2.22
2023-03-18T10:11:52.997Z,2.28
2023-03-18T10:15:04.732Z,2.20
2023-03-18T10:18:17.244Z,2.40
2023-03-18T10:21:27.006Z,1.90
2023-03-18T10:24:35.244Z,2.47
2023-03-18T10:27:45.813Z,3.03
2023-03-18T10:30:57.639Z,2.60
2023-03-18T10:34:08.742Z,2.08
2023-03-18T10:37:20.237Z,1.90
2023-03-18T10:40:27.365Z,2.00
2023-03-18T10:43:34.266Z,2.03
2023-03-18T10:46:39.637Z,1.95
2023-03-18T10:49:50.995Z,2.30
2023-03-18T10:52:57.306Z,2.03
2023-03-18T10:56:05.619Z,1.65
2023-03-18T11:02:20.050Z,1.70
2023-03-18T11:05:29.434Z,1.85
2023-03-18T11:08:39.814Z,2.35
2023-03-18T11:11:45.910Z,1.63
2023-03-18T11:14:51.749Z,1.77
2023-03-18T11:18:01.376Z,1.48
2023-03-18T11:21:13.314Z,1.50
2023-03-18T11:24:36.521Z,1.65
2023-03-18T11:27:43.068Z,1.60
2023-03-18T11:30:50.562Z,1.95
2023-03-18T11:33:59.961Z,1.67
2023-03-18T11:37:08.415Z,1.73
2023-03-18T11:40:21.514Z,1.90
2023-03-18T11:43:26.662Z,1.95
2023-03-18T11:46:33.250Z,1.98
2023-03-18T11:49:38.705Z,2.20
2023-03-18T11:52:50.127Z,2.63
2023-03-18T11:55:58.677Z,1.85
2023-03-18T11:59:11.747Z,1.90
2023-03-18T12:02:27.413Z,2.15
2023-03-18T12:05:40.918Z,2.40
2023-03-18T12:08:54.496Z,2.00
2023-03-18T12:12:03.858Z,1.90
2023-03-18T12:15:15.244Z,2.30
2023-03-18T12:18:26.294Z,3.22
2023-03-18T12:21:39.685Z,2.80
2023-03-18T12:25:00.461Z,2.40
2023-03-18T12:28:12.680Z,2.22
2023-03-18T12:31:31.771Z,2.38
2023-03-18T12:34:47.253Z,2.63
2023-03-18T12:38:00.736Z,2.85
2023-03-18T12:41:13.024Z,2.72
2023-03-18T12:44:25.711Z,2.53
2023-03-18T12:47:37.079Z,2.50
2023-03-18T12:50:44.500Z,2.30
2023-03-18T12:53:51.449Z,2.22
2023-03-18T12:57:01.956Z,2.00
2023-03-18T13:00:10.893Z,2.60
2023-03-18T13:03:24.915Z,2.20
2023-03-18T13:06:32.587Z,2.20
2023-03-18T13:09:40.521Z,2.00
2023-03-18T13:12:50.183Z,2.40
2023-03-18T13:15:56.755Z,3.00
2023-03-18T13:19:04.609Z,2.33
2023-03-18T13:22:15.117Z,2.35
2023-03-18T13:25:24.377Z,2.40
2023-03-18T13:28:42.849Z,2.17
2023-03-18T13:31:53.224Z,1.75
2023-03-18T13:35:04.444Z,1.90
2023-03-18T13:38:30.285Z,1.92
2023-03-18T13:41:53.249Z,2.30
2023-03-18T13:45:08.074Z,2.30
2023-03-18T13:48:16.615Z,2.22
2023-03-18T13:51:24.014Z,2.08
2023-03-18T13:54:35.008Z,2.00
2023-03-18T13:57:50.052Z,1.90
2023-03-18T14:01:10.106Z,2.15
2023-03-18T14:04:34.340Z,2.00
2023-03-18T14:07:49.746Z,1.90
2023-03-18T14:11:19.980Z,2.00
2023-03-18T14:14:39.937Z,2.13
2023-03-18T14:17:47.373Z,2.10
2023-03-18T14:20:58.270Z,2.15
2023-03-18T14:24:14.417Z,2.30
2023-03-18T14:27:22.138Z,2.30
2023-03-18T14:30:42.920Z,2.35
2023-03-18T14:33:54.361Z,2.20
2023-03-18T14:37:26.373Z,1.75
2023-03-18T14:40:38.492Z,1.85
2023-03-18T14:43:46.448Z,2.15
2023-03-18T14:46:53.944Z,1.95
2023-03-18T14:50:04.098Z,1.70
2023-03-18T14:53:14.114Z,1.52
2023-03-18T14:56:26.903Z,1.77
2023-03-18T14:59:32.385Z,1.88
2023-03-18T15:02:41.065Z,2.17
2023-03-18T15:05:47.036Z,1.92
2023-03-18T15:08:54.483Z,2.20
2023-03-18T15:12:02.137Z,2.10
2023-03-18T15:15:08.143Z,2.20
2023-03-18T15:18:21.808Z,1.95
2023-03-18T15:21:28.923Z,3.05
2023-03-18T15:24:34.335Z,2.03
2023-03-18T15:27:43.019Z,2.13
2023-03-18T15:30:54.642Z,2.75
2023-03-18T15:34:10.078Z,2.33
2023-03-18T15:37:29.146Z,2.05
2023-03-18T15:40:36.860Z,2.15
2023-03-18T15:43:46.062Z,2.40
2023-03-18T15:46:51.375Z,2.08
2023-03-18T15:49:58.111Z,1.90
2023-03-18T15:53:08.182Z,2.33
2023-03-18T15:56:17.141Z,2.70
2023-03-18T15:59:27.522Z,2.80
2023-03-18T16:02:33.241Z,2.30
2023-03-18T16:05:39.151Z,2.75
2023-03-18T16:08:45.316Z,2.13
2023-03-18T16:11:52.682Z,2.72
2023-03-18T16:15:00.442Z,2.58
2023-03-18T16:18:05.869Z,2.65
2023-03-18T16:21:12.351Z,2.80
2023-03-18T16:24:17.763Z,2.80
2023-03-18T16:27:30.818Z,2.72
2023-03-18T16:30:40.651Z,2.20
2023-03-18T16:33:46.538Z,2.40
2023-03-18T16:36:53.968Z,2.20
2023-03-18T16:39:59.120Z,3.00
2023-03-18T16:43:04.545Z,3.35
2023-03-18T16:46:14.087Z,2.67
2023-03-18T16:49:21.414Z,2.58
2023-03-18T16:52:26.616Z,3.10
2023-03-18T16:55:32.954Z,3.25
2023-03-18T16:58:39.643Z,3.30
2023-03-18T17:01:47.704Z,3.13
2023-03-18T17:04:53.700Z,3.50
2023-03-18T17:07:59.053Z,2.90
2023-03-18T17:11:05.919Z,3.28
2023-03-18T17:14:12.729Z,3.40
2023-03-18T17:17:24.064Z,3.33
2023-03-18T17:20:30.485Z,3.25
2023-03-18T17:23:35.789Z,3.63
2023-03-18T17:26:40.849Z,3.70
2023-03-18T17:29:46.323Z,4.07
2023-03-18T17:32:54.561Z,3.67
2023-03-18T17:36:00.756Z,3.78
2023-03-18T17:39:06.243Z,3.45
2023-03-18T17:42:19.618Z,3.85
2023-03-18T17:45:27.999Z,4.10
2023-03-18T17:48:36.360Z,4.43
2023-03-18T17:54:46.958Z,4.32
2023-03-18T17:57:52.660Z,4.22
2023-03-18T18:01:06.703Z,4.97
2023-03-18T18:04:17.756Z,5.07
2023-03-18T18:07:24.440Z,4.30
2023-03-18T18:10:30.041Z,4.18
2023-03-18T18:13:35.689Z,4.45
2023-03-18T18:16:40.985Z,4.88
2023-03-18T18:19:48.960Z,4.40
2023-03-18T18:22:55.563Z,4.80
2023-03-18T18:26:01.273Z,5.28
2023-03-18T18:29:13.708Z,6.72
2023-03-18T18:32:19.241Z,5.28
2023-03-18T18:35:27.418Z,4.93
2023-03-18T18:41:37.695Z,4.85
2023-03-18T18:44:43.497Z,5.18
2023-03-18T18:47:48.906Z,5.28
2023-03-18T18:50:56.898Z,5.88
2023-03-18T18:54:03.084Z,5.70
2023-03-18T18:57:08.154Z,5.90
2023-03-18T19:00:18.935Z,5.82
2023-03-18T19:03:25.281Z,6.25
2023-03-18T19:06:34.245Z,5.63
2023-03-18T19:09:39.412Z,4.63
2023-03-18T19:12:44.962Z,5.25
2023-03-18T19:15:50.729Z,5.82
2023-03-18T19:18:56.078Z,7.00
2023-03-18T19:22:04.682Z,7.75
2023-03-18T19:25:12.536Z,6.97
2023-03-18T19:28:47.871Z,5.85
2023-03-18T19:31:57.524Z,5.85
2023-03-18T19:35:02.957Z,5.70
2023-03-18T19:38:12.701Z,6.68
2023-03-18T19:41:18.098Z,7.20
2023-03-18T19:44:24.481Z,5.78
2023-03-18T19:47:31.507Z,6.35
2023-03-18T19:50:36.614Z,6.43
2023-03-18T19:53:44.710Z,6.13
2023-03-18T19:56:49.976Z,6.32
2023-03-18T19:59:55.743Z,6.63
2023-03-18T20:03:01.831Z,6.80
2023-03-18T20:06:08.207Z,6.88
2023-03-18T20:09:15.896Z,6.20
2023-03-18T20:12:26.089Z,6.22
2023-03-18T20:15:32.775Z,5.72
2023-03-18T20:18:38.289Z,5.35
2023-03-18T20:21:43.450Z,6.55
2023-03-18T20:24:51.608Z,6.47
2023-03-18T20:27:58.258Z,6.13
2023-03-18T20:31:04.319Z,5.30
2023-03-18T20:34:09.563Z,4.93
2023-03-18T20:37:21.615Z,4.55
2023-03-18T20:40:30.296Z,5.10
2023-03-18T20:43:35.670Z,4.55
2023-03-18T20:46:40.761Z,5.22
2023-03-18T20:49:47.842Z,4.88
2023-03-18T20:52:53.256Z,5.00
2023-03-18T20:56:01.509Z,4.15
2023-03-18T20:59:07.352Z,4.45
2023-03-18T21:02:23.754Z,4.00
2023-03-18T21:05:29.171Z,4.05
2023-03-18T21:08:34.752Z,3.67
2023-03-18T21:11:42.945Z,3.40
2023-03-18T21:14:47.954Z,3.33
2023-03-18T21:17:53.173Z,3.42
2023-03-18T21:20:58.974Z,3.38
2023-03-18T21:24:03.992Z,3.40
2023-03-18T21:27:15.665Z,3.35
2023-03-18T21:30:21.715Z,3.60
2023-03-18T21:33:28.281Z,2.80
2023-03-18T21:36:33.526Z,3.08
2023-03-18T21:39:39.066Z,2.55
2023-03-18T21:42:47.252Z,3.47
2023-03-18T21:45:52.668Z,3.05
2023-03-18T21:48:57.924Z,2.75
2023-03-18T21:52:03.882Z,3.67
2023-03-18T21:55:09.993Z,3.00
2023-03-18T21:58:19.251Z,2.90
2023-03-18T22:01:26.723Z,2.90
2023-03-18T22:04:32.508Z,3.30
2023-03-18T22:07:37.797Z,3.00
2023-03-18T22:10:42.961Z,3.03
2023-03-18T22:13:51.141Z,2.95
2023-03-18T22:16:56.386Z,4.65
2023-03-18T22:20:02.149Z,3.00
2023-03-18T22:23:18.201Z,2.97
2023-03-18T22:26:23.677Z,3.50
2023-03-18T22:29:31.480Z,4.10
2023-03-18T22:32:40.933Z,3.93
2023-03-18T22:35:46.081Z,3.28
2023-03-18T22:38:51.966Z,4.00
2023-03-18T22:41:57.115Z,3.55
2023-03-18T22:45:05.298Z,3.67
2023-03-18T22:48:11.103Z,4.18
2023-03-18T22:51:22.165Z,2.97
2023-03-18T22:54:27.539Z,3.90
2023-03-18T22:57:33.105Z,3.47
2023-03-18T23:00:41.437Z,3.72
2023-03-18T23:06:52.897Z,3.22
2023-03-18T23:09:58.983Z,3.30
2023-03-18T23:13:04.140Z,3.40
2023-03-18T23:16:16.462Z,3.28
2023-03-18T23:19:21.747Z,3.65
2023-03-18T23:22:28.422Z,2.80
2023-03-18T23:25:34.176Z,2.80
2023-03-18T23:28:44.372Z,3.05
2023-03-18T23:31:52.858Z,2.90
2023-03-18T23:34:57.908Z,3.35
2023-03-18T23:38:03.168Z,2.72
2023-03-18T23:41:08.420Z,2.60
2023-03-18T23:44:13.665Z,2.58
2023-03-18T23:47:22.044Z,2.72
2023-03-18T23:50:27.582Z,2.53
2023-03-18T23:53:32.840Z,2.40
2023-03-18T23:56:38.191Z,3.03
2023-03-18T23:59:43.701Z,2.30
